sensor_id;sensor_type;location;lat;lon;timestamp;temperature;humidity
13854;DHT22;6997;51.782;8.824;2022-11-15T00:00:32;9.00;99.90
13854;DHT22;6997;51.782;8.824;2022-11-15T00:02:57;9.10;99.90
13854;DHT22;6997;51.782;8.824;2022-11-15T00:05:23;9.10;99.90
13854;DHT22;6997;51.782;8.824;2022-11-15T00:07:49;9.20;99.90
13854;DHT22;6997;51.782;8.824;2022-11-15T00:10:14;9.20;99.90
13854;DHT22;6997;51.782;8.824;2022-11-15T00:12:40;9.30;99.90
13854;DHT22;6997;51.782;8.824;2022-11-15T00:15:06;9.30;99.90
13854;DHT22;6997;51.782;8.824;2022-11-15T00:17:32;9.40;99.90
13854;DHT22;6997;51.782;8.824;2022-11-15T00:19:58;9.50;99.90
13854;DHT22;6997;51.782;8.824;2022-11-15T00:22:23;9.40;99.90
13854;DHT22;6997;51.782;8.824;2022-11-15T00:24:49;10.00;99.90
13854;DHT22;6997;51.782;8.824;2022-11-15T00:27:14;9.60;99.90
13854;DHT22;6997;51.782;8.824;2022-11-15T00:29:40;9.60;99.90
13854;DHT22;6997;51.782;8.824;2022-11-15T00:32:09;9.60;99.90
13854;DHT22;6997;51.782;8.824;2022-11-15T00:34:35;9.60;99.90
13854;DHT22;6997;51.782;8.824;2022-11-15T00:37:01;9.60;99.90
13854;DHT22;6997;51.782;8.824;2022-11-15T00:39:26;9.70;99.90
13854;DHT22;6997;51.782;8.824;2022-11-15T00:41:52;9.70;99.90
13854;DHT22;6997;51.782;8.824;2022-11-15T00:44:17;9.70;99.90
13854;DHT22;6997;51.782;8.824;2022-11-15T00:46:43;10.50;99.90
13854;DHT22;6997;51.782;8.824;2022-11-15T00:49:08;9.80;99.90
13854;DHT22;6997;51.782;8.824;2022-11-15T00:51:34;9.70;99.90
13854;DHT22;6997;51.782;8.824;2022-11-15T00:54:00;9.80;99.90
13854;DHT22;6997;51.782;8.824;2022-11-15T00:56:25;9.80;99.90
13854;DHT22;6997;51.782;8.824;2022-11-15T00:58:51;9.90;99.90
13854;DHT22;6997;51.782;8.824;2022-11-15T01:01:17;9.90;99.90
13854;DHT22;6997;51.782;8.824;2022-11-15T01:03:43;9.80;99.90
13854;DHT22;6997;51.782;8.824;2022-11-15T01:06:09;9.80;99.90
13854;DHT22;6997;51.782;8.824;2022-11-15T01:08:35;9.90;99.90
13854;DHT22;6997;51.782;8.824;2022-11-15T01:11:09;9.90;99.90
13854;DHT22;6997;51.782;8.824;2022-11-15T01:13:36;9.80;99.90
13854;DHT22;6997;51.782;8.824;2022-11-15T01:16:10;9.80;99.90
13854;DHT22;6997;51.782;8.824;2022-11-15T01:18:37;9.80;99.90
13854;DHT22;6997;51.782;8.824;2022-11-15T01:21:08;9.70;99.90
13854;DHT22;6997;51.782;8.824;2022-11-15T01:23:34;9.70;99.90
13854;DHT22;6997;51.782;8.824;2022-11-15T01:26:00;9.70;99.90
13854;DHT22;6997;51.782;8.824;2022-11-15T01:28:33;10.60;99.90
13854;DHT22;6997;51.782;8.824;2022-11-15T01:31:00;9.80;99.90
13854;DHT22;6997;51.782;8.824;2022-11-15T01:33:27;9.80;99.90
13854;DHT22;6997;51.782;8.824;2022-11-15T01:35:52;9.80;99.90
13854;DHT22;6997;51.782;8.824;2022-11-15T01:38:18;10.10;99.90
13854;DHT22;6997;51.782;8.824;2022-11-15T01:40:44;10.10;99.90
13854;DHT22;6997;51.782;8.824;2022-11-15T01:43:30;9.70;99.90
13854;DHT22;6997;51.782;8.824;2022-11-15T01:46:04;9.80;99.90
13854;DHT22;6997;51.782;8.824;2022-11-15T01:48:33;9.70;99.90
13854;DHT22;6997;51.782;8.824;2022-11-15T01:51:06;9.60;99.90
13854;DHT22;6997;51.782;8.824;2022-11-15T01:53:32;9.60;99.90
13854;DHT22;6997;51.782;8.824;2022-11-15T01:56:02;9.60;99.90
13854;DHT22;6997;51.782;8.824;2022-11-15T01:58:29;9.60;99.90
13854;DHT22;6997;51.782;8.824;2022-11-15T02:00:55;9.60;99.90
13854;DHT22;6997;51.782;8.824;2022-11-15T02:03:22;9.60;99.90
13854;DHT22;6997;51.782;8.824;2022-11-15T02:05:51;9.60;99.90
13854;DHT22;6997;51.782;8.824;2022-11-15T02:08:16;9.50;99.90
13854;DHT22;6997;51.782;8.824;2022-11-15T02:10:46;9.40;99.90
13854;DHT22;6997;51.782;8.824;2022-11-15T02:13:16;9.40;99.90
13854;DHT22;6997;51.782;8.824;2022-11-15T02:16:00;9.40;99.90
13854;DHT22;6997;51.782;8.824;2022-11-15T02:18:35;9.50;99.90
13854;DHT22;6997;51.782;8.824;2022-11-15T02:32:50;9.80;99.90
13854;DHT22;6997;51.782;8.824;2022-11-15T02:38:04;9.70;99.90
13854;DHT22;6997;51.782;8.824;2022-11-15T02:40:57;9.70;99.90
13854;DHT22;6997;51.782;8.824;2022-11-15T02:43:29;9.60;99.90
13854;DHT22;6997;51.782;8.824;2022-11-15T02:46:41;10.30;99.90
13854;DHT22;6997;51.782;8.824;2022-11-15T02:49:29;9.70;99.90
13854;DHT22;6997;51.782;8.824;2022-11-15T02:51:56;9.70;99.90
13854;DHT22;6997;51.782;8.824;2022-11-15T02:54:28;9.70;99.90
13854;DHT22;6997;51.782;8.824;2022-11-15T02:56:56;9.60;99.90
13854;DHT22;6997;51.782;8.824;2022-11-15T03:02:15;9.60;99.90
13854;DHT22;6997;51.782;8.824;2022-11-15T03:05:04;9.60;99.90
13854;DHT22;6997;51.782;8.824;2022-11-15T03:12:56;9.60;99.90
13854;DHT22;6997;51.782;8.824;2022-11-15T03:15:38;9.60;99.90
13854;DHT22;6997;51.782;8.824;2022-11-15T03:18:28;9.50;99.90
13854;DHT22;6997;51.782;8.824;2022-11-15T03:20:55;9.40;99.90
13854;DHT22;6997;51.782;8.824;2022-11-15T03:23:23;9.30;99.90
13854;DHT22;6997;51.782;8.824;2022-11-15T03:25:50;9.30;99.90
13854;DHT22;6997;51.782;8.824;2022-11-15T03:28:23;9.30;99.90
13854;DHT22;6997;51.782;8.824;2022-11-15T03:30:52;9.20;99.90
13854;DHT22;6997;51.782;8.824;2022-11-15T03:33:19;9.20;99.90
13854;DHT22;6997;51.782;8.824;2022-11-15T03:35:47;9.30;99.90
13854;DHT22;6997;51.782;8.824;2022-11-15T03:41:29;9.20;99.90
13854;DHT22;6997;51.782;8.824;2022-11-15T03:44:13;9.10;99.90
13854;DHT22;6997;51.782;8.824;2022-11-15T03:46:58;9.10;99.90
13854;DHT22;6997;51.782;8.824;2022-11-15T03:49:35;9.10;99.90
13854;DHT22;6997;51.782;8.824;2022-11-15T03:52:03;9.30;99.90
13854;DHT22;6997;51.782;8.824;2022-11-15T03:54:29;9.40;99.90
13854;DHT22;6997;51.782;8.824;2022-11-15T03:56:55;9.50;99.90
13854;DHT22;6997;51.782;8.824;2022-11-15T03:59:21;9.50;99.90
13854;DHT22;6997;51.782;8.824;2022-11-15T04:01:47;9.40;99.90
13854;DHT22;6997;51.782;8.824;2022-11-15T04:04:12;9.40;99.90
13854;DHT22;6997;51.782;8.824;2022-11-15T04:06:38;9.50;99.90
13854;DHT22;6997;51.782;8.824;2022-11-15T04:09:04;9.50;99.90
13854;DHT22;6997;51.782;8.824;2022-11-15T04:11:30;9.40;99.90
13854;DHT22;6997;51.782;8.824;2022-11-15T04:13:55;9.40;99.90
13854;DHT22;6997;51.782;8.824;2022-11-15T04:16:21;9.30;99.90
13854;DHT22;6997;51.782;8.824;2022-11-15T04:18:46;9.30;99.90
13854;DHT22;6997;51.782;8.824;2022-11-15T04:21:32;9.40;99.90
13854;DHT22;6997;51.782;8.824;2022-11-15T04:24:16;10.20;99.90
13854;DHT22;6997;51.782;8.824;2022-11-15T04:26:41;9.40;99.90
13854;DHT22;6997;51.782;8.824;2022-11-15T04:29:07;9.40;99.90
13854;DHT22;6997;51.782;8.824;2022-11-15T04:31:51;9.40;99.90
13854;DHT22;6997;51.782;8.824;2022-11-15T04:34:17;11.10;99.90
13854;DHT22;6997;51.782;8.824;2022-11-15T04:36:43;9.30;99.90
13854;DHT22;6997;51.782;8.824;2022-11-15T04:39:27;9.20;99.90
13854;DHT22;6997;51.782;8.824;2022-11-15T04:41:52;10.40;99.90
13854;DHT22;6997;51.782;8.824;2022-11-15T04:44:18;9.40;99.90
13854;DHT22;6997;51.782;8.824;2022-11-15T04:46:43;9.30;99.90
13854;DHT22;6997;51.782;8.824;2022-11-15T04:49:09;9.50;99.90
13854;DHT22;6997;51.782;8.824;2022-11-15T04:51:34;9.70;99.90
13854;DHT22;6997;51.782;8.824;2022-11-15T04:54:00;9.60;99.90
13854;DHT22;6997;51.782;8.824;2022-11-15T04:56:26;9.60;99.90
13854;DHT22;6997;51.782;8.824;2022-11-15T04:58:51;9.70;99.90
13854;DHT22;6997;51.782;8.824;2022-11-15T05:01:17;9.60;99.90
13854;DHT22;6997;51.782;8.824;2022-11-15T05:03:43;9.60;99.90
13854;DHT22;6997;51.782;8.824;2022-11-15T05:06:27;9.60;99.90
13854;DHT22;6997;51.782;8.824;2022-11-15T05:08:53;9.60;99.90
13854;DHT22;6997;51.782;8.824;2022-11-15T05:11:19;10.20;99.90
13854;DHT22;6997;51.782;8.824;2022-11-15T05:13:45;9.80;99.90
13854;DHT22;6997;51.782;8.824;2022-11-15T05:16:11;10.70;99.90
13854;DHT22;6997;51.782;8.824;2022-11-15T05:18:37;10.10;99.90
13854;DHT22;6997;51.782;8.824;2022-11-15T05:21:11;10.20;99.90
13854;DHT22;6997;51.782;8.824;2022-11-15T05:23:37;10.30;99.90
13854;DHT22;6997;51.782;8.824;2022-11-15T05:26:06;10.30;99.90
13854;DHT22;6997;51.782;8.824;2022-11-15T05:28:32;10.30;99.90
13854;DHT22;6997;51.782;8.824;2022-11-15T05:31:06;11.40;99.90
13854;DHT22;6997;51.782;8.824;2022-11-15T05:33:32;10.40;99.90
13854;DHT22;6997;51.782;8.824;2022-11-15T05:38:30;10.50;99.90
13854;DHT22;6997;51.782;8.824;2022-11-15T05:40:56;10.40;99.90
13854;DHT22;6997;51.782;8.824;2022-11-15T05:43:22;10.40;99.90
13854;DHT22;6997;51.782;8.824;2022-11-15T05:45:48;10.50;99.90
13854;DHT22;6997;51.782;8.824;2022-11-15T05:48:14;10.50;99.90
13854;DHT22;6997;51.782;8.824;2022-11-15T05:50:43;10.50;99.90
13854;DHT22;6997;51.782;8.824;2022-11-15T05:53:11;10.50;99.90
13854;DHT22;6997;51.782;8.824;2022-11-15T05:55:39;10.40;99.90
13854;DHT22;6997;51.782;8.824;2022-11-15T05:58:05;10.50;99.90
13854;DHT22;6997;51.782;8.824;2022-11-15T06:00:30;11.20;99.90
13854;DHT22;6997;51.782;8.824;2022-11-15T06:02:56;10.70;99.90
13854;DHT22;6997;51.782;8.824;2022-11-15T06:05:22;10.70;99.90
13854;DHT22;6997;51.782;8.824;2022-11-15T06:07:47;10.40;99.90
13854;DHT22;6997;51.782;8.824;2022-11-15T06:10:13;10.40;99.90
13854;DHT22;6997;51.782;8.824;2022-11-15T06:12:38;10.30;99.90
13854;DHT22;6997;51.782;8.824;2022-11-15T06:15:04;10.60;99.90
13854;DHT22;6997;51.782;8.824;2022-11-15T06:17:30;10.30;99.90
13854;DHT22;6997;51.782;8.824;2022-11-15T06:19:56;10.30;99.90
13854;DHT22;6997;51.782;8.824;2022-11-15T06:22:21;10.20;99.90
13854;DHT22;6997;51.782;8.824;2022-11-15T06:24:47;10.20;99.90
13854;DHT22;6997;51.782;8.824;2022-11-15T06:27:13;10.20;99.90
13854;DHT22;6997;51.782;8.824;2022-11-15T06:29:39;10.20;99.90
13854;DHT22;6997;51.782;8.824;2022-11-15T06:32:05;10.20;99.90
13854;DHT22;6997;51.782;8.824;2022-11-15T06:34:31;10.10;99.90
13854;DHT22;6997;51.782;8.824;2022-11-15T06:36:56;12.30;99.90
13854;DHT22;6997;51.782;8.824;2022-11-15T06:39:22;10.10;99.90
13854;DHT22;6997;51.782;8.824;2022-11-15T06:41:48;10.30;99.90
13854;DHT22;6997;51.782;8.824;2022-11-15T06:44:13;10.50;99.90
13854;DHT22;6997;51.782;8.824;2022-11-15T06:46:39;10.20;99.90
13854;DHT22;6997;51.782;8.824;2022-11-15T06:49:04;10.20;99.90
13854;DHT22;6997;51.782;8.824;2022-11-15T06:51:30;10.20;99.90
13854;DHT22;6997;51.782;8.824;2022-11-15T06:53:55;10.20;99.90
13854;DHT22;6997;51.782;8.824;2022-11-15T06:56:21;10.20;99.90
13854;DHT22;6997;51.782;8.824;2022-11-15T06:58:46;10.30;99.90
13854;DHT22;6997;51.782;8.824;2022-11-15T07:01:13;10.30;99.90
13854;DHT22;6997;51.782;8.824;2022-11-15T07:03:40;10.50;99.90
13854;DHT22;6997;51.782;8.824;2022-11-15T07:06:08;10.40;99.90
13854;DHT22;6997;51.782;8.824;2022-11-15T07:08:35;10.50;99.90
13854;DHT22;6997;51.782;8.824;2022-11-15T07:11:05;10.40;99.90
13854;DHT22;6997;51.782;8.824;2022-11-15T07:17:40;10.40;99.90
13854;DHT22;6997;51.782;8.824;2022-11-15T08:13:52;11.40;99.90
13854;DHT22;6997;51.782;8.824;2022-11-15T08:16:17;11.40;99.90
13854;DHT22;6997;51.782;8.824;2022-11-15T08:18:43;11.40;99.90
13854;DHT22;6997;51.782;8.824;2022-11-15T08:21:19;11.40;99.90
13854;DHT22;6997;51.782;8.824;2022-11-15T08:23:45;11.60;99.90
13854;DHT22;6997;51.782;8.824;2022-11-15T08:26:11;11.60;99.90
13854;DHT22;6997;51.782;8.824;2022-11-15T08:28:37;11.60;99.90
13854;DHT22;6997;51.782;8.824;2022-11-15T08:31:04;11.60;99.90
13854;DHT22;6997;51.782;8.824;2022-11-15T08:33:31;11.60;99.90
13854;DHT22;6997;51.782;8.824;2022-11-15T08:35:59;11.60;99.90
13854;DHT22;6997;51.782;8.824;2022-11-15T08:38:27;11.60;99.90
13854;DHT22;6997;51.782;8.824;2022-11-15T08:41:04;11.60;99.90
13854;DHT22;6997;51.782;8.824;2022-11-15T08:43:31;11.60;99.90
13854;DHT22;6997;51.782;8.824;2022-11-15T08:45:57;11.60;99.90
13854;DHT22;6997;51.782;8.824;2022-11-15T08:48:23;11.70;99.90
13854;DHT22;6997;51.782;8.824;2022-11-15T08:50:53;11.80;99.90
13854;DHT22;6997;51.782;8.824;2022-11-15T08:53:21;11.80;99.90
13854;DHT22;6997;51.782;8.824;2022-11-15T08:55:47;11.70;99.90
13854;DHT22;6997;51.782;8.824;2022-11-15T08:58:13;13.50;99.90
13854;DHT22;6997;51.782;8.824;2022-11-15T09:00:40;11.90;99.90
13854;DHT22;6997;51.782;8.824;2022-11-15T09:03:07;12.00;99.90
13854;DHT22;6997;51.782;8.824;2022-11-15T09:05:36;12.00;99.90
13854;DHT22;6997;51.782;8.824;2022-11-15T09:08:03;13.00;99.90
13854;DHT22;6997;51.782;8.824;2022-11-15T09:10:29;12.00;99.90
13854;DHT22;6997;51.782;8.824;2022-11-15T09:12:59;12.10;99.90
13854;DHT22;6997;51.782;8.824;2022-11-15T09:15:25;12.10;99.90
13854;DHT22;6997;51.782;8.824;2022-11-15T09:17:51;12.10;99.90
13854;DHT22;6997;51.782;8.824;2022-11-15T09:20:17;12.10;99.90
13854;DHT22;6997;51.782;8.824;2022-11-15T09:22:43;12.10;99.90
13854;DHT22;6997;51.782;8.824;2022-11-15T09:25:09;12.10;99.90
13854;DHT22;6997;51.782;8.824;2022-11-15T09:27:35;12.30;99.90
13854;DHT22;6997;51.782;8.824;2022-11-15T09:30:02;12.30;99.90
13854;DHT22;6997;51.782;8.824;2022-11-15T09:32:29;12.30;99.90
13854;DHT22;6997;51.782;8.824;2022-11-15T09:34:58;12.30;99.90
13854;DHT22;6997;51.782;8.824;2022-11-15T09:37:25;12.40;99.90
13854;DHT22;6997;51.782;8.824;2022-11-15T09:39:51;12.40;99.90
13854;DHT22;6997;51.782;8.824;2022-11-15T09:44:57;12.60;99.90
13854;DHT22;6997;51.782;8.824;2022-11-15T09:47:49;12.60;99.90
13854;DHT22;6997;51.782;8.824;2022-11-15T09:50:45;12.60;99.90
13854;DHT22;6997;51.782;8.824;2022-11-15T11:11:53;13.40;99.90
13854;DHT22;6997;51.782;8.824;2022-11-15T11:14:28;13.40;99.90
13854;DHT22;6997;51.782;8.824;2022-11-15T11:25:38;13.50;99.90
13854;DHT22;6997;51.782;8.824;2022-11-15T11:28:29;13.60;99.90
13854;DHT22;6997;51.782;8.824;2022-11-15T11:47:24;13.60;99.90
13854;DHT22;6997;51.782;8.824;2022-11-15T11:50:10;13.60;99.90
13854;DHT22;6997;51.782;8.824;2022-11-15T11:52:54;13.80;99.90
13854;DHT22;6997;51.782;8.824;2022-11-15T11:55:23;13.80;99.90
13854;DHT22;6997;51.782;8.824;2022-11-15T11:58:16;13.80;99.90
13854;DHT22;6997;51.782;8.824;2022-11-15T12:00:56;14.00;99.90
13854;DHT22;6997;51.782;8.824;2022-11-15T12:03:47;14.00;99.90
13854;DHT22;6997;51.782;8.824;2022-11-15T12:06:37;14.00;99.90
13854;DHT22;6997;51.782;8.824;2022-11-15T12:09:33;14.20;99.90
13854;DHT22;6997;51.782;8.824;2022-11-15T12:12:18;14.20;99.90
13854;DHT22;6997;51.782;8.824;2022-11-15T12:17:37;14.30;99.90
13854;DHT22;6997;51.782;8.824;2022-11-15T12:33:31;13.90;99.90
13854;DHT22;6997;51.782;8.824;2022-11-15T13:06:42;15.00;99.90
13854;DHT22;6997;51.782;8.824;2022-11-15T13:14:53;15.70;99.90
13854;DHT22;6997;51.782;8.824;2022-11-15T13:22:24;15.70;99.90
13854;DHT22;6997;51.782;8.824;2022-11-15T13:33:23;14.50;99.90
13854;DHT22;6997;51.782;8.824;2022-11-15T13:35:52;14.30;99.90
13854;DHT22;6997;51.782;8.824;2022-11-15T13:38:27;14.10;99.90
13854;DHT22;6997;51.782;8.824;2022-11-15T13:40:54;14.10;99.90
13854;DHT22;6997;51.782;8.824;2022-11-15T13:48:31;13.80;99.90
13854;DHT22;6997;51.782;8.824;2022-11-15T13:51:08;13.80;99.90
13854;DHT22;6997;51.782;8.824;2022-11-15T13:53:42;13.90;99.90
13854;DHT22;6997;51.782;8.824;2022-11-15T13:56:14;13.90;99.90
13854;DHT22;6997;51.782;8.824;2022-11-15T13:58:42;13.80;99.90
13854;DHT22;6997;51.782;8.824;2022-11-15T14:01:18;13.90;99.90
13854;DHT22;6997;51.782;8.824;2022-11-15T15:06:08;13.70;99.90
13854;DHT22;6997;51.782;8.824;2022-11-15T15:08:34;14.90;99.90
13854;DHT22;6997;51.782;8.824;2022-11-15T15:11:00;13.90;99.90
13854;DHT22;6997;51.782;8.824;2022-11-15T15:13:26;13.60;99.90
13854;DHT22;6997;51.782;8.824;2022-11-15T15:15:54;13.60;99.90
13854;DHT22;6997;51.782;8.824;2022-11-15T15:18:20;13.60;99.90
13854;DHT22;6997;51.782;8.824;2022-11-15T15:20:57;13.60;99.90
13854;DHT22;6997;51.782;8.824;2022-11-15T15:23:25;13.50;99.90
13854;DHT22;6997;51.782;8.824;2022-11-15T15:25:54;13.50;99.90
13854;DHT22;6997;51.782;8.824;2022-11-15T15:28:21;13.40;99.90
13854;DHT22;6997;51.782;8.824;2022-11-15T15:30:47;13.30;99.90
13854;DHT22;6997;51.782;8.824;2022-11-15T15:33:15;13.30;99.90
13854;DHT22;6997;51.782;8.824;2022-11-15T15:35:42;13.30;99.90
13854;DHT22;6997;51.782;8.824;2022-11-15T15:38:11;13.30;99.90
13854;DHT22;6997;51.782;8.824;2022-11-15T15:40:37;13.40;99.90
13854;DHT22;6997;51.782;8.824;2022-11-15T15:43:03;14.50;99.90
13854;DHT22;6997;51.782;8.824;2022-11-15T15:45:29;13.70;99.90
13854;DHT22;6997;51.782;8.824;2022-11-15T15:47:55;13.20;99.90
13854;DHT22;6997;51.782;8.824;2022-11-15T15:50:29;13.20;99.90
13854;DHT22;6997;51.782;8.824;2022-11-15T15:52:57;13.10;99.90
13854;DHT22;6997;51.782;8.824;2022-11-15T15:55:24;14.20;99.90
13854;DHT22;6997;51.782;8.824;2022-11-15T15:57:50;13.00;99.90
13854;DHT22;6997;51.782;8.824;2022-11-15T16:00:16;13.10;99.90
13854;DHT22;6997;51.782;8.824;2022-11-15T16:02:43;13.00;99.90
13854;DHT22;6997;51.782;8.824;2022-11-15T16:05:09;13.10;99.90
13854;DHT22;6997;51.782;8.824;2022-11-15T16:07:35;13.10;99.90
13854;DHT22;6997;51.782;8.824;2022-11-15T16:10:02;13.00;99.90
13854;DHT22;6997;51.782;8.824;2022-11-15T16:12:34;13.00;99.90
13854;DHT22;6997;51.782;8.824;2022-11-15T16:15:01;12.90;99.90
13854;DHT22;6997;51.782;8.824;2022-11-15T16:17:31;12.90;99.90
13854;DHT22;6997;51.782;8.824;2022-11-15T16:19:59;12.90;99.90
13854;DHT22;6997;51.782;8.824;2022-11-15T16:22:26;12.90;99.90
13854;DHT22;6997;51.782;8.824;2022-11-15T16:24:54;12.90;99.90
13854;DHT22;6997;51.782;8.824;2022-11-15T16:27:21;13.00;99.90
13854;DHT22;6997;51.782;8.824;2022-11-15T16:29:48;12.90;99.90
13854;DHT22;6997;51.782;8.824;2022-11-15T16:32:16;12.80;99.90
13854;DHT22;6997;51.782;8.824;2022-11-15T16:34:42;12.80;99.90
13854;DHT22;6997;51.782;8.824;2022-11-15T16:37:22;12.70;99.90
13854;DHT22;6997;51.782;8.824;2022-11-15T16:39:48;12.80;99.90
13854;DHT22;6997;51.782;8.824;2022-11-15T16:42:15;12.80;99.90
13854;DHT22;6997;51.782;8.824;2022-11-15T16:47:18;12.80;99.90
13854;DHT22;6997;51.782;8.824;2022-11-15T16:49:44;12.80;99.90
13854;DHT22;6997;51.782;8.824;2022-11-15T16:52:12;12.80;99.90
13854;DHT22;6997;51.782;8.824;2022-11-15T16:54:39;12.80;99.90
13854;DHT22;6997;51.782;8.824;2022-11-15T16:57:05;12.80;99.90
13854;DHT22;6997;51.782;8.824;2022-11-15T16:59:31;12.80;99.90
13854;DHT22;6997;51.782;8.824;2022-11-15T17:01:58;12.80;99.90
13854;DHT22;6997;51.782;8.824;2022-11-15T17:04:23;12.80;99.90
13854;DHT22;6997;51.782;8.824;2022-11-15T17:06:49;12.90;99.90
13854;DHT22;6997;51.782;8.824;2022-11-15T17:09:20;13.00;99.90
13854;DHT22;6997;51.782;8.824;2022-11-15T17:11:49;12.80;99.90
13854;DHT22;6997;51.782;8.824;2022-11-15T17:14:16;12.80;99.90
13854;DHT22;6997;51.782;8.824;2022-11-15T17:16:42;12.80;99.90
13854;DHT22;6997;51.782;8.824;2022-11-15T17:19:16;12.80;99.90
13854;DHT22;6997;51.782;8.824;2022-11-15T17:21:42;12.90;99.90
13854;DHT22;6997;51.782;8.824;2022-11-15T17:24:09;12.90;99.90
13854;DHT22;6997;51.782;8.824;2022-11-15T17:26:35;12.80;99.90
13854;DHT22;6997;51.782;8.824;2022-11-15T17:29:01;12.80;99.90
13854;DHT22;6997;51.782;8.824;2022-11-15T17:31:29;12.90;99.90
13854;DHT22;6997;51.782;8.824;2022-11-15T17:33:57;14.00;99.90
13854;DHT22;6997;51.782;8.824;2022-11-15T17:36:23;13.20;99.90
13854;DHT22;6997;51.782;8.824;2022-11-15T17:38:49;12.80;99.90
13854;DHT22;6997;51.782;8.824;2022-11-15T17:41:17;12.90;99.90
13854;DHT22;6997;51.782;8.824;2022-11-15T17:43:43;12.80;99.90
13854;DHT22;6997;51.782;8.824;2022-11-15T17:46:14;12.80;99.90
13854;DHT22;6997;51.782;8.824;2022-11-15T17:48:40;11.10;99.90
13854;DHT22;6997;51.782;8.824;2022-11-15T17:51:11;12.80;99.90
13854;DHT22;6997;51.782;8.824;2022-11-15T17:53:39;12.80;99.90
13854;DHT22;6997;51.782;8.824;2022-11-15T17:56:11;12.80;99.90
13854;DHT22;6997;51.782;8.824;2022-11-15T17:58:37;12.80;99.90
13854;DHT22;6997;51.782;8.824;2022-11-15T18:01:30;12.70;99.90
13854;DHT22;6997;51.782;8.824;2022-11-15T18:03:57;12.80;99.90
13854;DHT22;6997;51.782;8.824;2022-11-15T18:06:25;12.80;99.90
13854;DHT22;6997;51.782;8.824;2022-11-15T18:08:53;12.70;99.90
13854;DHT22;6997;51.782;8.824;2022-11-15T18:11:28;13.30;99.90
13854;DHT22;6997;51.782;8.824;2022-11-15T18:13:56;12.70;99.90
13854;DHT22;6997;51.782;8.824;2022-11-15T18:16:24;13.60;99.90
13854;DHT22;6997;51.782;8.824;2022-11-15T18:18:51;12.70;99.90
13854;DHT22;6997;51.782;8.824;2022-11-15T18:21:22;12.80;99.90
13854;DHT22;6997;51.782;8.824;2022-11-15T18:23:51;12.80;99.90
13854;DHT22;6997;51.782;8.824;2022-11-15T18:26:17;12.80;99.90
13854;DHT22;6997;51.782;8.824;2022-11-15T18:28:47;12.80;99.90
13854;DHT22;6997;51.782;8.824;2022-11-15T18:31:25;12.80;99.90
13854;DHT22;6997;51.782;8.824;2022-11-15T18:33:52;12.70;99.90
13854;DHT22;6997;51.782;8.824;2022-11-15T18:36:22;8.60;99.90
13854;DHT22;6997;51.782;8.824;2022-11-15T18:38:56;12.70;99.90
13854;DHT22;6997;51.782;8.824;2022-11-15T18:41:23;12.70;99.90
13854;DHT22;6997;51.782;8.824;2022-11-15T18:43:53;12.70;99.90
13854;DHT22;6997;51.782;8.824;2022-11-15T18:46:20;12.60;99.90
13854;DHT22;6997;51.782;8.824;2022-11-15T18:48:47;12.70;99.90
13854;DHT22;6997;51.782;8.824;2022-11-15T18:51:19;12.60;99.90
13854;DHT22;6997;51.782;8.824;2022-11-15T18:53:46;12.60;99.90
13854;DHT22;6997;51.782;8.824;2022-11-15T18:56:17;12.60;99.90
13854;DHT22;6997;51.782;8.824;2022-11-15T18:58:45;12.60;99.90
13854;DHT22;6997;51.782;8.824;2022-11-15T19:03:49;12.60;99.90
13854;DHT22;6997;51.782;8.824;2022-11-15T19:06:17;12.70;99.90
13854;DHT22;6997;51.782;8.824;2022-11-15T19:08:45;12.60;99.90
13854;DHT22;6997;51.782;8.824;2022-11-15T19:11:20;12.60;99.90
13854;DHT22;6997;51.782;8.824;2022-11-15T19:16:17;12.50;99.90
13854;DHT22;6997;51.782;8.824;2022-11-15T19:18:43;12.60;99.90
13854;DHT22;6997;51.782;8.824;2022-11-15T19:21:11;12.60;99.90
13854;DHT22;6997;51.782;8.824;2022-11-15T19:23:39;12.60;99.90
13854;DHT22;6997;51.782;8.824;2022-11-15T19:26:08;12.60;99.90
13854;DHT22;6997;51.782;8.824;2022-11-15T19:28:34;12.60;99.90
13854;DHT22;6997;51.782;8.824;2022-11-15T19:31:13;12.60;99.90
13854;DHT22;6997;51.782;8.824;2022-11-15T19:33:40;12.60;99.90
13854;DHT22;6997;51.782;8.824;2022-11-15T19:36:13;13.20;99.90
13854;DHT22;6997;51.782;8.824;2022-11-15T19:38:39;12.60;99.90
13854;DHT22;6997;51.782;8.824;2022-11-15T19:41:17;12.50;99.90
13854;DHT22;6997;51.782;8.824;2022-11-15T19:43:43;12.50;99.90
13854;DHT22;6997;51.782;8.824;2022-11-15T19:46:10;12.50;99.90
13854;DHT22;6997;51.782;8.824;2022-11-15T19:48:36;12.50;99.90
13854;DHT22;6997;51.782;8.824;2022-11-15T19:51:05;12.60;99.90
13854;DHT22;6997;51.782;8.824;2022-11-15T19:53:32;12.50;99.90
13854;DHT22;6997;51.782;8.824;2022-11-15T19:56:03;12.50;99.90
13854;DHT22;6997;51.782;8.824;2022-11-15T19:58:30;12.50;99.90
13854;DHT22;6997;51.782;8.824;2022-11-15T20:03:38;12.50;99.90
13854;DHT22;6997;51.782;8.824;2022-11-15T20:06:07;12.50;99.90
13854;DHT22;6997;51.782;8.824;2022-11-15T20:08:34;12.50;99.90
13854;DHT22;6997;51.782;8.824;2022-11-15T20:11:01;12.50;99.90
13854;DHT22;6997;51.782;8.824;2022-11-15T20:13:27;13.00;99.90
13854;DHT22;6997;51.782;8.824;2022-11-15T20:15:53;12.50;99.90
13854;DHT22;6997;51.782;8.824;2022-11-15T20:18:20;12.50;99.90
13854;DHT22;6997;51.782;8.824;2022-11-15T20:20:46;12.50;99.90
13854;DHT22;6997;51.782;8.824;2022-11-15T20:23:12;12.50;99.90
13854;DHT22;6997;51.782;8.824;2022-11-15T20:25:38;12.50;99.90
13854;DHT22;6997;51.782;8.824;2022-11-15T20:28:05;13.50;99.90
13854;DHT22;6997;51.782;8.824;2022-11-15T20:30:32;12.50;99.90
13854;DHT22;6997;51.782;8.824;2022-11-15T20:32:57;12.50;99.90
13854;DHT22;6997;51.782;8.824;2022-11-15T20:35:23;12.90;99.90
13854;DHT22;6997;51.782;8.824;2022-11-15T20:37:48;12.50;99.90
13854;DHT22;6997;51.782;8.824;2022-11-15T20:40:14;12.50;99.90
13854;DHT22;6997;51.782;8.824;2022-11-15T20:45:06;12.40;99.90
13854;DHT22;6997;51.782;8.824;2022-11-15T20:47:32;12.50;99.90
13854;DHT22;6997;51.782;8.824;2022-11-15T20:49:58;13.40;99.90
13854;DHT22;6997;51.782;8.824;2022-11-15T20:52:24;12.50;99.90
13854;DHT22;6997;51.782;8.824;2022-11-15T20:54:50;13.40;99.90
13854;DHT22;6997;51.782;8.824;2022-11-15T20:57:15;12.70;99.90
13854;DHT22;6997;51.782;8.824;2022-11-15T20:59:41;12.50;99.90
13854;DHT22;6997;51.782;8.824;2022-11-15T21:02:12;12.50;99.90
13854;DHT22;6997;51.782;8.824;2022-11-15T21:04:38;12.50;99.90
13854;DHT22;6997;51.782;8.824;2022-11-15T21:07:03;12.80;99.90
13854;DHT22;6997;51.782;8.824;2022-11-15T21:09:29;13.20;99.90
13854;DHT22;6997;51.782;8.824;2022-11-15T21:12:13;12.50;99.90
13854;DHT22;6997;51.782;8.824;2022-11-15T21:14:40;12.40;99.90
13854;DHT22;6997;51.782;8.824;2022-11-15T21:17:06;12.40;99.90
13854;DHT22;6997;51.782;8.824;2022-11-15T21:19:33;12.40;99.90
13854;DHT22;6997;51.782;8.824;2022-11-15T21:21:59;12.50;99.90
13854;DHT22;6997;51.782;8.824;2022-11-15T21:24:25;12.40;99.90
13854;DHT22;6997;51.782;8.824;2022-11-15T21:26:52;12.40;99.90
13854;DHT22;6997;51.782;8.824;2022-11-15T21:29:18;12.40;99.90
13854;DHT22;6997;51.782;8.824;2022-11-15T21:31:48;12.30;99.90
13854;DHT22;6997;51.782;8.824;2022-11-15T21:34:15;12.30;99.90
13854;DHT22;6997;51.782;8.824;2022-11-15T21:36:41;12.30;99.90
13854;DHT22;6997;51.782;8.824;2022-11-15T21:39:07;12.30;99.90